Time;durP1;ratioP1;P1;durP2;ratioP2;P2;SDS_P1;SDS_P2;PMS_P1;PMS_P2;Temp;Humidity;BMP_temperature;BMP_pressure;BME280_temperature;BME280_humidity;BME280_pressure;Samples;Min_cycle;Max_cycle;Signal;HPM_P1;HPM_P2
2023/08/19 00:01:48;;;;;;;5.70;5.20;;;;;;;29.08;46.65;101152.13;4912857;28;96986;-81
2023/08/19 00:04:15;;;;;;;5.53;5.13;;;;;;;29.07;47.02;101148.50;4913915;28;96772;-80
2023/08/19 00:06:41;;;;;;;5.40;4.90;;;;;;;29.09;46.68;101151.06;4914440;28;96359;-80
2023/08/19 00:09:09;;;;;;;6.25;5.43;;;;;;;29.08;46.79;101141.06;4913525;28;97019;-81
2023/08/19 00:11:37;;;;;;;5.85;5.35;;;;;;;29.09;46.53;101145.53;4912512;28;96651;-80
2023/08/19 00:14:05;;;;;;;5.88;5.38;;;;;;;29.08;46.76;101139.16;4912572;28;97618;-81
2023/08/19 00:16:35;;;;;;;5.50;5.00;;;;;;;29.09;46.46;101149.13;4911682;28;96791;-80
2023/08/19 00:19:02;;;;;;;5.88;5.30;;;;;;;29.08;46.58;101144.69;4905908;28;98161;-80
2023/08/19 00:21:29;;;;;;;5.32;4.82;;;;;;;29.07;46.76;101140.22;4913392;28;97177;-81
2023/08/19 00:23:57;;;;;;;5.55;5.05;;;;;;;29.08;46.71;101144.69;4908647;28;96937;-81
2023/08/19 00:26:25;;;;;;;5.78;5.28;;;;;;;29.08;46.62;101144.69;4904982;28;97615;-81
2023/08/19 00:28:52;;;;;;;5.95;5.45;;;;;;;29.08;46.75;101136.38;4907403;28;98037;-80
2023/08/19 00:31:18;;;;;;;5.80;5.15;;;;;;;29.09;46.90;101137.22;4910578;28;97514;-80
2023/08/19 00:33:45;;;;;;;5.30;4.90;;;;;;;29.09;46.48;101131.69;4907042;28;96762;-81
2023/08/19 00:36:12;;;;;;;6.07;5.25;;;;;;;29.08;46.68;101135.53;4889720;28;96818;-81
2023/08/19 00:38:38;;;;;;;6.03;5.43;;;;;;;29.07;46.86;101131.91;4908996;28;97330;-80
2023/08/19 00:41:05;;;;;;;5.30;4.90;;;;;;;29.07;46.91;101123.63;4909717;28;97861;-80
2023/08/19 00:43:33;;;;;;;5.80;5.30;;;;;;;29.08;46.70;101136.38;4909230;28;96744;-80
2023/08/19 00:46:00;;;;;;;6.05;5.55;;;;;;;29.07;46.91;101134.69;4893516;28;96810;-81
2023/08/19 00:48:29;;;;;;;5.25;4.80;;;;;;;29.08;46.89;101135.53;4911329;28;99328;-81
2023/08/19 00:50:58;;;;;;;5.32;4.85;;;;;;;29.07;46.73;101129.16;4910040;28;96863;-81
2023/08/19 00:53:25;;;;;;;5.53;5.05;;;;;;;29.08;46.75;101141.91;4893676;28;96876;-80
2023/08/19 00:55:52;;;;;;;5.15;4.75;;;;;;;29.08;46.88;101133.63;4895536;28;97263;-80
2023/08/19 00:58:18;;;;;;;5.05;4.55;;;;;;;29.07;46.75;101140.22;4909298;28;96808;-81
2023/08/19 01:00:46;;;;;;;5.28;4.88;;;;;;;29.07;46.82;101136.59;4906960;28;97621;-80
2023/08/19 01:03:12;;;;;;;5.25;4.85;;;;;;;29.07;46.41;101137.44;4908305;28;96557;-81
2023/08/19 01:05:47;;;;;;;5.57;5.07;;;;;;;29.07;47.09;101137.44;4914894;28;97130;-80
2023/08/19 01:08:21;;;;;;;5.25;4.85;;;;;;;29.07;46.97;101134.69;4913034;28;98021;-81
2023/08/19 01:10:58;;;;;;;;;;;;;;;29.05;46.76;101127.69;4893131;28;99420;-81
2023/08/19 01:13:35;;;;;;;5.30;4.90;;;;;;;29.04;46.92;101129.59;4914204;28;96889;-80
2023/08/19 01:16:14;;;;;;;4.82;4.43;;;;;;;29.05;47.05;101131.28;4911608;28;97338;-81
2023/08/19 01:18:42;;;;;;;5.65;5.15;;;;;;;29.05;46.94;101127.69;4913599;28;96974;-80
2023/08/19 01:21:10;;;;;;;5.03;4.63;;;;;;;29.05;47.06;101123.00;4911793;28;96900;-80
2023/08/19 01:23:42;;;;;;;5.00;4.60;;;;;;;29.06;46.76;101134.91;4913687;28;97376;-80
2023/08/19 01:26:08;;;;;;;5.28;4.78;;;;;;;29.05;46.87;101133.22;4912520;28;96874;-81
2023/08/19 01:28:35;;;;;;;5.78;5.28;;;;;;;29.06;46.96;101123.84;4909370;28;100756;-80
2023/08/19 01:31:02;;;;;;;5.20;4.70;;;;;;;29.04;46.94;101126.84;4916296;28;96960;-81
2023/08/19 01:33:31;;;;;;;5.72;5.22;;;;;;;29.06;47.15;101124.69;4916480;28;97586;-81
2023/08/19 01:36:10;;;;;;;5.15;4.65;;;;;;;29.05;47.09;101120.25;4914745;28;96956;-80
2023/08/19 01:39:06;;;;;;;5.55;5.05;;;;;;;29.05;46.94;101124.91;4914161;28;99493;-81
2023/08/19 01:41:34;;;;;;;5.00;4.60;;;;;;;29.05;46.93;101111.94;4907540;28;97512;-82
2023/08/19 01:44:02;;;;;;;5.25;4.75;;;;;;;29.04;46.96;101107.47;4909127;28;97349;-81
2023/08/19 01:46:29;;;;;;;4.88;4.47;;;;;;;29.04;46.76;101118.53;4915276;28;98262;-80
2023/08/19 01:48:56;;;;;;;5.53;5.03;;;;;;;29.04;47.00;101118.53;4912837;28;100017;-80
2023/08/19 01:51:22;;;;;;;5.05;4.57;;;;;;;29.05;46.64;101108.31;4911320;28;97780;-80
2023/08/19 01:53:49;;;;;;;5.38;4.88;;;;;;;29.04;47.06;101104.72;4912975;28;97104;-81
2023/08/19 01:56:16;;;;;;;5.00;4.60;;;;;;;29.05;46.77;101100.88;4913425;28;97089;-81
2023/08/19 01:58:42;;;;;;;5.43;5.03;;;;;;;29.05;46.95;101097.25;4895899;28;99481;-80
2023/08/19 02:01:12;;;;;;;5.30;4.85;;;;;;;29.05;46.84;101089.81;4909569;28;99271;-80
2023/08/19 02:03:39;;;;;;;5.60;5.10;;;;;;;29.04;47.06;101085.34;4912854;28;96816;-81
2023/08/19 02:06:06;;;;;;;4.90;4.50;;;;;;;29.04;46.94;101088.13;4912778;28;96864;-81
2023/08/19 02:08:33;;;;;;;5.20;4.80;;;;;;;29.04;47.05;101082.59;4908420;28;96902;-81
2023/08/19 02:11:01;;;;;;;5.28;4.80;;;;;;;29.04;46.98;101082.59;4910316;28;99423;-81
2023/08/19 02:13:27;;;;;;;4.97;4.57;;;;;;;29.04;47.02;101088.13;4906209;28;96925;-80
2023/08/19 02:15:54;;;;;;;5.30;4.80;;;;;;;29.05;47.05;101084.28;4912830;28;97159;-81
2023/08/19 02:18:21;;;;;;;5.20;4.80;;;;;;;29.04;46.95;101088.13;4912462;28;99381;-80
2023/08/19 02:20:48;;;;;;;4.85;4.45;;;;;;;29.05;47.00;101083.44;4901549;28;96864;-80
2023/08/19 02:23:15;;;;;;;4.90;4.50;;;;;;;29.04;47.08;101079.81;4910605;28;97343;-81
2023/08/19 02:25:41;;;;;;;5.15;4.75;;;;;;;29.04;46.85;101070.69;4898023;28;98301;-80
2023/08/19 02:28:08;;;;;;;5.28;4.85;;;;;;;29.04;47.06;101070.69;4911688;28;97445;-81
2023/08/19 02:30:35;;;;;;;4.95;4.55;;;;;;;29.03;46.94;101072.59;4897403;28;99529;-81
2023/08/19 02:33:06;;;;;;;5.10;4.70;;;;;;;29.05;47.27;101077.91;4916803;28;97056;-81
2023/08/19 02:35:32;;;;;;;4.95;4.55;;;;;;;29.04;47.07;101070.69;4905837;28;96630;-81
2023/08/19 02:37:59;;;;;;;5.00;4.60;;;;;;;29.04;46.90;101074.28;4911589;28;96719;-81
2023/08/19 02:40:30;;;;;;;5.13;4.63;;;;;;;29.03;47.00;101069.84;4915489;28;96925;-81
2023/08/19 02:42:56;;;;;;;4.95;4.55;;;;;;;29.04;47.14;101073.44;4919735;28;97272;-81
2023/08/19 02:45:24;;;;;;;4.88;4.47;;;;;;;29.04;47.14;101071.53;4905197;28;96868;-81
2023/08/19 02:47:51;;;;;;;4.70;4.30;;;;;;;29.04;47.08;101067.91;4921698;28;99621;-81
2023/08/19 02:50:17;;;;;;;5.10;4.60;;;;;;;29.04;47.27;101066.00;4906211;28;98251;-82
2023/08/19 02:52:44;;;;;;;5.15;4.75;;;;;;;29.04;46.96;101071.53;4922630;28;96841;-81
2023/08/19 02:55:10;;;;;;;4.88;4.47;;;;;;;29.03;46.64;101072.59;4919628;28;97022;-81
2023/08/19 02:57:37;;;;;;;4.78;4.40;;;;;;;29.04;47.11;101071.53;4917754;28;99295;-81
2023/08/19 03:00:04;;;;;;;4.68;4.30;;;;;;;29.04;46.96;101067.91;4901931;28;99845;-81
2023/08/19 03:02:31;;;;;;;5.38;4.88;;;;;;;29.03;46.79;101064.31;4900984;28;96809;-81
2023/08/19 03:04:57;;;;;;;4.65;4.28;;;;;;;29.03;46.95;101060.69;4898681;28;96637;-81
2023/08/19 03:07:24;;;;;;;5.18;4.75;;;;;;;29.03;47.08;101063.47;4918730;28;100155;-82
2023/08/19 03:09:51;;;;;;;4.78;4.38;;;;;;;29.03;47.10;101064.31;4903065;28;98267;-81
2023/08/19 03:12:17;;;;;;;4.80;4.40;;;;;;;29.03;47.04;101060.69;4916769;28;97396;-81
2023/08/19 03:14:44;;;;;;;5.10;4.70;;;;;;;29.03;47.07;101058.78;4916602;28;96926;-81
2023/08/19 03:17:10;;;;;;;5.00;4.60;;;;;;;29.03;46.95;101052.41;4919521;28;99417;-82
2023/08/19 03:19:37;;;;;;;4.93;4.43;;;;;;;29.03;46.88;101047.72;4915578;28;101106;-81
2023/08/19 03:22:04;;;;;;;5.00;4.50;;;;;;;29.03;47.04;101049.63;4899846;28;96959;-81
2023/08/19 03:24:30;;;;;;;4.90;4.50;;;;;;;29.02;47.06;101051.56;4919829;28;96888;-82
2023/08/19 03:26:57;;;;;;;5.00;4.60;;;;;;;29.03;47.16;101057.94;4923173;28;97616;-82
2023/08/19 03:29:25;;;;;;;5.30;4.80;;;;;;;29.02;47.08;101057.09;4912590;28;96730;-81
2023/08/19 03:31:52;;;;;;;4.75;4.35;;;;;;;29.03;47.17;101053.25;4907489;28;96559;-81
2023/08/19 03:34:18;;;;;;;4.93;4.53;;;;;;;29.03;47.22;101052.41;4929332;28;98741;-82
2023/08/19 03:36:46;;;;;;;4.78;4.38;;;;;;;29.03;46.88;101052.41;4927342;28;98893;-81
2023/08/19 03:39:13;;;;;;;4.90;4.50;;;;;;;29.03;47.18;101052.41;4928619;28;99317;-82
2023/08/19 03:41:41;;;;;;;4.55;4.15;;;;;;;29.03;47.00;101052.41;4910288;28;97152;-81
2023/08/19 03:44:08;;;;;;;4.80;4.40;;;;;;;29.02;47.18;101051.56;4922941;28;96708;-81
2023/08/19 03:46:34;;;;;;;4.88;4.47;;;;;;;29.01;46.89;101049.84;4921070;28;96935;-81
2023/08/19 03:49:01;;;;;;;4.93;4.53;;;;;;;29.02;47.12;101048.78;4926233;28;98632;-82
2023/08/19 03:51:29;;;;;;;4.50;4.10;;;;;;;29.02;47.03;101050.72;4926651;28;96679;-82
2023/08/19 03:53:55;;;;;;;4.88;4.47;;;;;;;29.01;47.11;101044.31;4926260;28;97217;-81
2023/08/19 03:56:22;;;;;;;4.90;4.50;;;;;;;29.02;46.95;101054.31;4921370;28;96820;-81
2023/08/19 03:58:49;;;;;;;4.57;4.18;;;;;;;29.01;46.90;101054.53;4922234;28;98432;-82
2023/08/19 04:01:15;;;;;;;4.97;4.57;;;;;;;29.01;47.06;101049.84;4905921;28;96660;-82
2023/08/19 04:03:44;;;;;;;4.65;4.25;;;;;;;29.01;47.13;101044.31;4924867;28;96830;-81
2023/08/19 04:06:11;;;;;;;4.90;4.50;;;;;;;29.01;46.94;101052.63;4909104;28;99329;-81
2023/08/19 04:08:37;;;;;;;4.93;4.53;;;;;;;29.01;46.97;101049.00;4921287;28;97894;-81
2023/08/19 04:11:05;;;;;;;4.50;4.10;;;;;;;29.01;47.08;101057.31;4923834;28;96601;-81
2023/08/19 04:13:32;;;;;;;4.97;4.55;;;;;;;29.00;46.72;101050.94;4923305;28;96867;-81
2023/08/19 04:16:06;;;;;;;5.07;4.57;;;;;;;29.02;46.83;101050.72;4903954;28;99125;-81
2023/08/19 04:18:34;;;;;;;4.47;4.13;;;;;;;29.01;47.02;101054.53;4920732;28;100706;-82
2023/08/19 04:21:05;;;;;;;4.82;4.43;;;;;;;29.01;47.06;101057.31;4901197;28;96859;-81
2023/08/19 04:23:33;;;;;;;4.60;4.20;;;;;;;29.02;46.96;101059.00;4905272;28;97630;-81
2023/08/19 04:26:00;;;;;;;4.80;4.40;;;;;;;29.01;47.02;101060.91;4917928;28;100883;-81
2023/08/19 04:28:27;;;;;;;4.40;4.10;;;;;;;29.01;47.12;101049.84;4922398;28;100320;-81
2023/08/19 04:31:05;;;;;;;4.20;3.90;;;;;;;29.01;46.96;101046.25;4900628;28;97162;-81
2023/08/19 04:33:54;;;;;;;4.45;4.13;;;;;;;28.99;47.02;101052.00;4918440;28;96775;-82
2023/08/19 04:36:21;;;;;;;4.75;4.35;;;;;;;28.99;46.98;101049.25;4917604;28;97969;-82
2023/08/19 04:38:48;;;;;;;4.70;4.30;;;;;;;28.99;47.25;101046.47;4919088;28;96807;-81
2023/08/19 04:41:16;;;;;;;4.97;4.47;;;;;;;29.00;47.26;101050.09;4916568;28;97479;-82
2023/08/19 04:43:46;;;;;;;4.22;3.92;;;;;;;29.00;47.14;101050.94;4898257;28;98182;-81
2023/08/19 04:46:14;;;;;;;4.32;4.03;;;;;;;28.99;46.84;101054.75;4919017;28;99103;-82
2023/08/19 04:48:41;;;;;;;4.93;4.53;;;;;;;29.00;47.12;101058.38;4913132;28;96860;-81
2023/08/19 04:51:07;;;;;;;5.05;4.63;;;;;;;29.00;47.10;101055.63;4893996;28;97150;-81
2023/08/19 04:53:34;;;;;;;4.35;4.05;;;;;;;29.00;46.86;101067.53;4910583;28;98128;-82
2023/08/19 04:56:04;;;;;;;4.45;4.15;;;;;;;29.00;47.15;101070.28;4910678;28;99357;-81
2023/08/19 04:58:32;;;;;;;4.25;3.95;;;;;;;29.00;47.02;101070.28;4905670;28;96801;-81
2023/08/19 05:00:59;;;;;;;4.32;3.97;;;;;;;29.00;47.25;101070.28;4910416;28;97919;-82
2023/08/19 05:03:25;;;;;;;4.75;4.35;;;;;;;28.99;47.30;101071.34;4910964;28;96655;-81
2023/08/19 05:05:53;;;;;;;4.90;4.50;;;;;;;28.99;47.28;101074.13;4894597;28;100108;-81
2023/08/19 05:08:24;;;;;;;4.88;4.47;;;;;;;29.00;47.30;101074.97;4910458;28;99852;-81
2023/08/19 05:10:50;;;;;;;4.22;3.92;;;;;;;29.00;47.12;101077.72;4908073;28;96711;-81
2023/08/19 05:13:18;;;;;;;4.00;3.70;;;;;;;28.99;47.26;101074.13;4895146;28;96723;-81
2023/08/19 05:15:46;;;;;;;4.53;4.18;;;;;;;29.00;47.02;101077.72;4894538;28;99553;-81
2023/08/19 05:18:13;;;;;;;4.63;4.25;;;;;;;29.00;47.27;101077.72;4911042;28;101028;-82
2023/08/19 05:20:39;;;;;;;4.40;4.10;;;;;;;28.99;47.15;101081.56;4911192;28;96745;-81
2023/08/19 05:23:06;;;;;;;4.63;4.22;;;;;;;28.99;47.24;101079.66;4889134;28;96913;-81
2023/08/19 05:25:33;;;;;;;4.40;4.00;;;;;;;29.00;47.19;101080.50;4910684;28;99032;-81
2023/08/19 05:27:59;;;;;;;4.30;3.90;;;;;;;28.99;47.24;101082.41;4903339;28;99274;-81
2023/08/19 05:30:26;;;;;;;4.60;4.20;;;;;;;29.00;47.32;101074.97;4913626;28;97395;-81
2023/08/19 05:32:52;;;;;;;4.55;4.15;;;;;;;28.99;47.09;101065.81;4911594;28;96813;-83
2023/08/19 05:35:19;;;;;;;4.65;4.25;;;;;;;29.00;47.20;101074.97;4909623;28;97047;-81
2023/08/19 05:37:46;;;;;;;4.68;4.28;;;;;;;28.99;47.02;101076.88;4908387;28;96980;-81
2023/08/19 05:40:12;;;;;;;4.47;4.18;;;;;;;28.99;47.16;101074.13;4910546;28;96738;-81
2023/08/19 05:42:39;;;;;;;4.68;4.28;;;;;;;29.00;47.00;101074.97;4912150;28;97427;-81
2023/08/19 05:45:06;;;;;;;4.65;4.25;;;;;;;29.00;47.13;101081.34;4912054;28;97784;-81
2023/08/19 05:47:33;;;;;;;4.50;4.10;;;;;;;29.00;47.00;101084.13;4912368;28;96810;-81
2023/08/19 05:50:00;;;;;;;4.57;4.20;;;;;;;29.00;47.19;101088.78;4909881;28;96786;-81
2023/08/19 05:52:26;;;;;;;4.70;4.30;;;;;;;29.00;47.29;101095.19;4915792;28;97199;-81
2023/08/19 05:54:53;;;;;;;4.75;4.35;;;;;;;28.99;47.24;101096.25;4915461;28;96905;-82
2023/08/19 05:57:20;;;;;;;4.25;3.95;;;;;;;29.00;47.33;101105.38;4914899;28;97065;-81
2023/08/19 05:59:46;;;;;;;4.85;4.45;;;;;;;28.99;47.28;101098.16;4916638;28;96746;-82
2023/08/19 06:02:12;;;;;;;4.47;4.07;;;;;;;28.99;47.09;101095.41;4914858;28;97230;-81
2023/08/19 06:04:39;;;;;;;4.10;3.80;;;;;;;29.00;47.36;101100.72;4914957;28;98789;-81
2023/08/19 06:07:05;;;;;;;4.28;3.88;;;;;;;29.00;47.04;101105.38;4914195;28;97330;-81
2023/08/19 06:09:32;;;;;;;4.20;3.85;;;;;;;28.99;47.16;101106.47;4909640;28;96814;-81
2023/08/19 06:11:58;;;;;;;4.82;4.43;;;;;;;28.99;47.30;101112.84;4908809;28;97660;-81
2023/08/19 06:14:25;;;;;;;4.72;4.32;;;;;;;29.01;47.08;101101.56;4929933;28;96980;-82
2023/08/19 06:16:52;;;;;;;4.40;4.10;;;;;;;29.00;46.75;101111.75;4912137;28;96824;-81
2023/08/19 06:19:18;;;;;;;4.32;4.03;;;;;;;29.01;47.08;101104.31;4912840;28;97857;-81
2023/08/19 06:21:45;;;;;;;4.35;4.03;;;;;;;28.99;47.02;101101.78;4907621;28;96700;-81
2023/08/19 06:24:12;;;;;;;4.78;4.38;;;;;;;29.00;47.27;101100.72;4911174;28;98034;-81
2023/08/19 06:26:38;;;;;;;4.88;4.30;;;;;;;29.01;47.13;101099.63;4919576;28;97773;-81
2023/08/19 06:29:05;;;;;;;4.65;4.25;;;;;;;29.00;47.18;101097.94;4920691;28;96808;-81
2023/08/19 06:31:32;;;;;;;4.47;4.07;;;;;;;29.01;47.12;101101.56;4923297;28;96960;-82
2023/08/19 06:33:58;;;;;;;4.30;3.97;;;;;;;29.00;47.00;101097.94;4923928;28;97657;-81
2023/08/19 06:36:28;;;;;;;4.65;4.25;;;;;;;29.01;47.06;101096.88;4921299;28;96715;-81
2023/08/19 06:39:06;;;;;;;4.40;4.00;;;;;;;29.01;46.96;101098.78;4911742;28;97595;-81
2023/08/19 06:41:35;;;;;;;4.63;4.25;;;;;;;29.01;47.20;101101.56;4922416;28;96891;-81
2023/08/19 06:44:04;;;;;;;4.43;4.03;;;;;;;29.01;46.98;101105.16;4922324;28;100082;-81
2023/08/19 06:46:31;;;;;;;4.63;4.22;;;;;;;29.01;47.11;101107.94;4898234;28;100440;-82
2023/08/19 06:48:58;;;;;;;4.40;4.00;;;;;;;29.02;46.95;101117.06;4923540;28;96964;-81
2023/08/19 06:51:27;;;;;;;4.13;3.83;;;;;;;29.01;47.23;101113.47;4919013;28;97665;-81
2023/08/19 06:53:54;;;;;;;4.60;4.20;;;;;;;29.02;47.06;101119.84;4915333;28;96609;-81
2023/08/19 06:56:33;;;;;;;4.25;3.85;;;;;;;29.01;47.23;101119.00;4913485;28;97696;-81
2023/08/19 06:59:21;;;;;;;4.38;3.97;;;;;;;29.01;47.13;101138.34;4915472;28;96873;-80
2023/08/19 07:02:03;;;;;;;4.32;4.03;;;;;;;29.02;47.22;101140.03;4927559;28;96589;-81
2023/08/19 07:04:34;;;;;;;4.35;3.95;;;;;;;29.01;47.08;101138.34;4911104;28;98762;-81
2023/08/19 07:07:05;;;;;;;4.18;3.78;;;;;;;29.02;46.80;101133.66;4927284;28;97179;-81
2023/08/19 07:09:34;;;;;;;4.32;3.92;;;;;;;29.02;47.26;101145.56;4921165;28;96733;-81
2023/08/19 07:12:33;;;;;;;4.65;4.22;;;;;;;29.03;47.22;101135.34;4921325;28;97306;-83
2023/08/19 07:14:59;;;;;;;4.45;4.05;;;;;;;29.01;47.35;101149.41;4908213;28;98301;-81
2023/08/19 07:17:29;;;;;;;4.30;4.00;;;;;;;29.02;47.37;101151.09;4919757;28;100827;-81
2023/08/19 07:19:57;;;;;;;4.18;3.78;;;;;;;29.03;47.13;101150.03;4919132;28;97382;-81
2023/08/19 07:22:26;;;;;;;4.15;3.85;;;;;;;29.03;47.05;101138.97;4923059;28;97244;-81
2023/08/19 07:24:53;;;;;;;4.65;4.18;;;;;;;29.03;47.17;101155.56;4922079;28;99554;-81
2023/08/19 07:27:20;;;;;;;4.55;4.20;;;;;;;29.04;46.98;101148.97;4924313;28;99783;-81
2023/08/19 07:29:51;;;;;;;4.10;3.80;;;;;;;29.05;46.98;101166.41;4924538;28;96770;-81
2023/08/19 07:32:20;;;;;;;4.40;4.00;;;;;;;29.04;47.04;101164.72;4923699;28;97050;-82
2023/08/19 07:34:46;;;;;;;4.15;3.80;;;;;;;29.05;47.39;101163.63;4924130;28;96533;-82
2023/08/19 07:37:13;;;;;;;4.30;3.90;;;;;;;29.05;47.29;101160.88;4924767;28;96927;-81
2023/08/19 07:39:40;;;;;;;3.85;3.50;;;;;;;29.05;47.23;101161.72;4925632;28;96720;-81
2023/08/19 07:42:06;;;;;;;4.38;3.97;;;;;;;29.05;47.11;101161.72;4918657;28;97042;-81
2023/08/19 07:44:33;;;;;;;4.03;3.72;;;;;;;29.05;47.45;101163.63;4914280;28;97050;-82
2023/08/19 07:46:59;;;;;;;4.32;3.92;;;;;;;29.06;47.16;101159.81;4902494;28;97799;-82
2023/08/19 07:49:26;;;;;;;4.50;4.10;;;;;;;29.07;47.37;101158.72;4919992;28;96742;-81
2023/08/19 07:51:52;;;;;;;4.00;3.70;;;;;;;29.07;46.92;101169.78;4925091;28;96822;-81
2023/08/19 07:54:21;;;;;;;4.20;3.90;;;;;;;29.07;47.00;101170.63;4902984;28;97034;-81
2023/08/19 07:56:48;;;;;;;4.28;3.88;;;;;;;29.08;47.12;101165.97;4904130;28;96658;-81
2023/08/19 07:59:15;;;;;;;3.80;3.50;;;;;;;29.09;47.00;101159.34;4895331;28;96546;-81
2023/08/19 08:01:41;;;;;;;4.00;3.70;;;;;;;29.09;47.42;101164.88;4918594;28;97045;-81
2023/08/19 08:04:08;;;;;;;4.03;3.70;;;;;;;29.09;46.99;101171.25;4908909;28;99203;-81
2023/08/19 08:06:35;;;;;;;4.28;3.88;;;;;;;29.10;47.16;101178.50;4918454;28;96664;-81
2023/08/19 08:09:02;;;;;;;4.00;3.60;;;;;;;29.12;46.96;101183.81;4915618;28;96842;-82
2023/08/19 08:11:28;;;;;;;4.63;4.13;;;;;;;29.12;47.02;101188.47;4904549;28;96684;-81
2023/08/19 08:13:56;;;;;;;4.18;3.78;;;;;;;29.13;47.30;101192.94;4902017;28;97820;-82
2023/08/19 08:16:22;;;;;;;4.18;3.80;;;;;;;29.15;47.15;101188.03;4882889;28;98735;-82
2023/08/19 08:18:49;;;;;;;4.47;4.07;;;;;;;29.15;47.13;101190.81;4899135;28;97530;-82
2023/08/19 08:21:18;;;;;;;4.03;3.63;;;;;;;29.16;47.27;101200.78;4919056;28;96659;-82
2023/08/19 08:23:44;;;;;;;4.20;3.75;;;;;;;29.16;46.84;101192.50;4927552;28;97193;-81
2023/08/19 08:26:11;;;;;;;4.20;3.80;;;;;;;29.16;47.12;101190.56;4916741;28;96825;-81
2023/08/19 08:28:37;;;;;;;4.22;3.83;;;;;;;29.17;46.92;101195.03;4934563;28;97397;-81
2023/08/19 08:31:04;;;;;;;4.18;3.80;;;;;;;29.17;47.05;101186.75;4918751;28;96840;-82
2023/08/19 08:33:31;;;;;;;4.13;3.83;;;;;;;29.18;47.23;101191.19;4920717;28;97473;-82
2023/08/19 08:35:59;;;;;;;4.10;3.75;;;;;;;29.17;47.24;101194.19;4902224;28;99295;-81
2023/08/19 08:38:25;;;;;;;3.92;3.60;;;;;;;29.17;47.25;101194.19;4919168;28;96643;-81
2023/08/19 08:40:52;;;;;;;4.50;3.90;;;;;;;29.17;47.39;101197.81;4921499;28;96811;-82
2023/08/19 08:43:18;;;;;;;4.05;3.63;;;;;;;29.18;47.13;101187.59;4903473;28;99057;-82
2023/08/19 08:45:45;;;;;;;4.25;3.85;;;;;;;29.18;47.22;101209.72;4920474;28;98598;-81
2023/08/19 08:48:14;;;;;;;4.45;4.05;;;;;;;29.18;46.99;101215.25;4921313;28;96679;-82
2023/08/19 08:50:41;;;;;;;4.15;3.85;;;;;;;29.18;47.06;101201.41;4921217;28;97006;-81
2023/08/19 08:53:08;;;;;;;4.15;3.75;;;;;;;29.18;47.00;101209.72;4920562;28;97001;-82
2023/08/19 08:55:35;;;;;;;4.20;3.88;;;;;;;29.18;47.26;101235.47;4904242;28;96713;-81
2023/08/19 08:58:02;;;;;;;3.97;3.63;;;;;;;29.18;47.18;101231.84;4917573;28;97047;-83
2023/08/19 09:00:29;;;;;;;4.85;4.10;;;;;;;29.18;46.98;101263.13;4921984;28;97483;-81
2023/08/19 09:02:55;;;;;;;4.13;3.83;;;;;;;29.17;47.29;101247.59;4921495;28;96502;-82
2023/08/19 09:05:25;;;;;;;4.57;4.18;;;;;;;29.17;47.19;101239.28;4922029;28;96784;-81
2023/08/19 09:07:53;;;;;;;5.20;4.20;;;;;;;29.18;47.16;101253.97;4900811;28;96807;-81
2023/08/19 09:10:23;;;;;;;4.03;3.63;;;;;;;29.17;47.07;101246.75;4921563;28;96991;-81
2023/08/19 09:13:00;;;;;;;3.90;3.60;;;;;;;29.18;47.34;101251.22;4919798;28;99979;-82
2023/08/19 09:15:28;;;;;;;4.13;3.78;;;;;;;29.17;47.28;101260.56;4917500;28;96854;-82
2023/08/19 09:17:58;;;;;;;4.78;3.72;;;;;;;29.18;47.36;101287.16;4916227;28;98231;-82
2023/08/19 09:20:25;;;;;;;5.20;4.40;;;;;;;29.17;47.33;101288.25;4890768;28;98990;-82
2023/08/19 09:23:03;;;;;;;4.22;3.80;;;;;;;29.18;46.98;101281.63;4901035;28;99675;-82
2023/08/19 09:25:33;;;;;;;4.30;3.90;;;;;;;29.17;47.13;101288.25;4937499;28;97822;-81
2023/08/19 09:28:00;;;;;;;4.13;3.72;;;;;;;29.16;47.31;101292.06;4923064;28;96808;-81
2023/08/19 09:30:34;;;;;;;5.28;4.03;;;;;;;29.18;47.34;101292.69;4925322;28;96943;-81
2023/08/19 09:33:01;;;;;;;4.50;4.10;;;;;;;29.16;47.17;101276.31;4920207;28;97544;-81
2023/08/19 09:35:36;;;;;;;4.40;4.00;;;;;;;29.16;47.40;101276.31;4922934;28;100254;-81
2023/08/19 09:38:26;;;;;;;4.43;3.60;;;;;;;29.17;47.35;101274.41;4923863;28;96993;-81
2023/08/19 09:41:04;;;;;;;4.88;3.70;;;;;;;29.16;47.41;101272.72;4926425;28;97120;-82
2023/08/19 09:43:31;;;;;;;4.47;4.07;;;;;;;29.16;47.46;101267.19;4926276;28;100188;-81
2023/08/19 09:45:58;;;;;;;4.05;3.65;;;;;;;29.17;47.29;101277.16;4927029;28;97974;-82
2023/08/19 09:48:25;;;;;;;4.40;3.78;;;;;;;29.17;47.48;101275.25;4925847;28;97120;-81
2023/08/19 09:50:52;;;;;;;4.00;3.60;;;;;;;29.17;47.36;101288.25;4918770;28;97059;-81
2023/08/19 09:53:19;;;;;;;4.15;3.78;;;;;;;29.17;47.65;101288.25;4925683;28;98244;-81
2023/08/19 09:55:48;;;;;;;4.72;4.10;;;;;;;29.18;47.46;101292.69;4909234;28;97173;-82
2023/08/19 09:58:15;;;;;;;4.30;3.90;;;;;;;29.17;47.33;101296.53;4926163;28;96752;-81
2023/08/19 10:00:42;;;;;;;4.03;3.63;;;;;;;29.18;47.46;101303.75;4923888;28;97185;-82
2023/08/19 10:03:09;;;;;;;4.65;4.13;;;;;;;29.18;47.46;101314.84;4920350;28;99535;-81
2023/08/19 10:05:41;;;;;;;4.32;3.90;;;;;;;29.18;47.61;101312.06;4924508;28;96984;-82
2023/08/19 10:08:17;;;;;;;4.28;3.72;;;;;;;29.18;47.46;101323.97;4922373;28;96496;-81
2023/08/19 10:10:45;;;;;;;4.38;3.88;;;;;;;29.18;47.54;101317.59;4920439;28;97357;-81
2023/08/19 10:13:13;;;;;;;4.10;3.70;;;;;;;29.20;47.37;101326.53;4919090;28;97239;-81
2023/08/19 10:15:42;;;;;;;3.80;3.40;;;;;;;29.19;47.54;101331.22;4918128;28;97715;-81
2023/08/19 10:18:26;;;;;;;4.18;3.72;;;;;;;29.19;47.75;101339.50;4935667;28;96792;-81
2023/08/19 10:20:56;;;;;;;4.43;4.07;;;;;;;29.19;47.38;101341.41;4920038;28;96748;-81
2023/08/19 10:23:25;;;;;;;4.75;3.88;;;;;;;29.19;47.66;101338.66;4918828;28;97871;-82
2023/08/19 10:25:53;;;;;;;4.93;4.22;;;;;;;29.20;47.80;101346.75;4924320;28;96809;-82
2023/08/19 10:28:24;;;;;;;4.68;3.97;;;;;;;29.21;47.35;101347.59;4924775;28;96909;-83
2023/08/19 10:31:08;;;;;;;4.13;3.72;;;;;;;29.21;47.46;101353.97;4912555;28;96938;-81
2023/08/19 10:33:42;;;;;;;5.07;4.30;;;;;;;29.22;47.59;101354.81;4907905;28;98902;-81
2023/08/19 10:36:13;;;;;;;4.13;3.75;;;;;;;29.21;47.60;101359.50;4919693;28;96940;-81
2023/08/19 10:38:43;;;;;;;4.30;3.72;;;;;;;29.23;47.60;101353.75;4922034;28;96771;-82
2023/08/19 10:41:36;;;;;;;4.03;3.72;;;;;;;29.23;47.65;101353.75;4925336;28;96589;-81
2023/08/19 10:44:06;;;;;;;4.20;3.80;;;;;;;29.22;47.30;101363.13;4922552;28;96769;-81
2023/08/19 10:46:38;;;;;;;4.43;4.03;;;;;;;29.24;47.47;101369.28;4907789;28;98833;-81
2023/08/19 10:49:06;;;;;;;4.07;3.65;;;;;;;29.23;47.42;101368.44;4912074;28;96804;-81
2023/08/19 10:51:50;;;;;;;4.50;3.88;;;;;;;29.24;47.55;101370.13;4907782;28;96794;-81
2023/08/19 10:54:26;;;;;;;4.85;4.05;;;;;;;29.25;47.50;101362.69;4899212;28;99406;-81
2023/08/19 10:57:14;;;;;;;4.45;3.70;;;;;;;29.24;47.70;101364.59;4913745;28;97344;-81
2023/08/19 10:59:43;;;;;;;4.80;4.30;;;;;;;29.23;47.76;101373.97;4903990;28;97249;-81
2023/08/19 11:02:11;;;;;;;4.82;3.95;;;;;;;29.24;47.72;101369.28;4911646;28;96600;-81
2023/08/19 11:04:42;;;;;;;4.95;4.05;;;;;;;29.24;47.59;101383.97;4912768;28;99850;-81
2023/08/19 11:07:10;;;;;;;4.45;4.05;;;;;;;29.25;47.77;101407.78;4908947;28;97651;-81
2023/08/19 11:09:40;;;;;;;4.45;4.05;;;;;;;29.26;47.67;101400.34;4911098;28;97184;-81
2023/08/19 11:12:07;;;;;;;4.72;4.18;;;;;;;29.25;47.61;101406.94;4903819;28;96737;-82
2023/08/19 11:14:34;;;;;;;4.47;4.07;;;;;;;29.25;47.59;101409.69;4912374;28;96814;-81
2023/08/19 11:17:02;;;;;;;4.82;4.32;;;;;;;29.25;47.37;101410.56;4894520;28;99612;-81
2023/08/19 11:19:30;;;;;;;4.18;3.83;;;;;;;29.26;47.50;101419.69;4904661;28;96779;-81
2023/08/19 11:21:57;;;;;;;4.20;3.80;;;;;;;29.25;47.34;101438.22;4894503;28;96895;-81
2023/08/19 11:24:31;;;;;;;5.22;4.20;;;;;;;29.25;47.49;101431.84;4905047;28;97415;-81
2023/08/19 11:26:57;;;;;;;4.45;3.65;;;;;;;29.25;47.79;101432.69;4907190;28;97770;-81
2023/08/19 11:29:24;;;;;;;4.30;3.90;;;;;;;29.25;47.53;101440.13;4909705;28;96740;-81
2023/08/19 11:31:51;;;;;;;4.03;3.63;;;;;;;29.24;47.60;101447.59;4909972;28;96701;-81